createdAt,value
2023-07-07T00:02:24.102Z,70.06
2023-07-07T00:04:51.228Z,70.46
2023-07-07T00:07:18.446Z,70.74
2023-07-07T00:09:45.360Z,70.84
2023-07-07T00:12:12.183Z,70.74
2023-07-07T00:14:38.962Z,71.11
2023-07-07T00:17:06.301Z,71.31
2023-07-07T00:19:34.414Z,70.45
2023-07-07T00:22:01.981Z,71.69
2023-07-07T00:24:28.919Z,72.21
2023-07-07T00:26:55.809Z,72.03
2023-07-07T00:29:23.144Z,71.51
2023-07-07T00:31:50.020Z,71.74
2023-07-07T00:34:17.351Z,71.70
2023-07-07T00:36:44.541Z,71.10
2023-07-07T00:39:11.641Z,71.14
2023-07-07T00:41:38.809Z,70.88
2023-07-07T00:44:05.745Z,70.90
2023-07-07T00:46:32.930Z,70.88
2023-07-07T00:49:02.327Z,70.87
2023-07-07T00:51:33.751Z,70.88
2023-07-07T00:54:00.892Z,71.09
2023-07-07T00:56:31.917Z,70.94
2023-07-07T00:59:14.003Z,71.01
2023-07-07T01:01:41.585Z,71.05
2023-07-07T01:04:11.966Z,71.06
2023-07-07T01:06:40.493Z,71.38
2023-07-07T01:09:10.193Z,71.64
2023-07-07T01:11:39.086Z,71.79
2023-07-07T01:14:16.894Z,72.13
2023-07-07T01:16:50.136Z,71.97
2023-07-07T01:19:25.947Z,72.30
2023-07-07T01:21:52.918Z,72.43
2023-07-07T01:24:37.353Z,73.18
2023-07-07T01:27:33.768Z,73.27
2023-07-07T01:30:18.314Z,73.30
2023-07-07T01:32:45.639Z,73.82
2023-07-07T01:35:14.786Z,74.20
2023-07-07T01:37:41.671Z,74.34
2023-07-07T01:40:09.532Z,74.50
2023-07-07T01:42:45.444Z,74.47
2023-07-07T01:45:28.877Z,74.02
2023-07-07T01:48:05.177Z,74.30
2023-07-07T01:50:33.617Z,74.36
2023-07-07T01:53:06.684Z,74.25
2023-07-07T01:55:36.151Z,74.23
2023-07-07T01:58:05.140Z,74.47
2023-07-07T02:00:33.097Z,74.59
2023-07-07T02:03:01.029Z,74.46
2023-07-07T02:05:31.648Z,74.34
2023-07-07T02:07:59.231Z,74.81
2023-07-07T02:10:26.115Z,74.92
2023-07-07T02:12:53.799Z,74.76
2023-07-07T02:15:20.828Z,74.52
2023-07-07T02:17:48.479Z,74.80
2023-07-07T02:20:15.537Z,75.24
2023-07-07T02:22:42.582Z,75.16
2023-07-07T02:25:09.767Z,75.49
2023-07-07T02:27:36.743Z,75.46
2023-07-07T02:30:06.648Z,75.73
2023-07-07T02:32:33.707Z,75.66
2023-07-07T02:35:02.575Z,75.51
2023-07-07T02:37:30.056Z,75.52
2023-07-07T02:39:56.917Z,75.81
2023-07-07T02:42:24.171Z,76.20
2023-07-07T02:44:51.042Z,76.55
2023-07-07T02:47:18.341Z,76.61
2023-07-07T02:49:45.587Z,76.63
2023-07-07T02:52:12.417Z,76.71
2023-07-07T02:54:39.446Z,77.02
2023-07-07T02:57:07.290Z,77.03
2023-07-07T02:59:34.259Z,77.01
2023-07-07T03:02:01.251Z,77.05
2023-07-07T03:04:28.371Z,77.03
2023-07-07T03:06:55.161Z,77.09
2023-07-07T03:09:22.997Z,77.24
2023-07-07T03:11:49.920Z,76.84
2023-07-07T03:14:20.533Z,77.11
2023-07-07T03:16:53.457Z,77.00
2023-07-07T03:19:29.662Z,76.63
2023-07-07T03:22:05.380Z,75.22
2023-07-07T03:24:58.668Z,71.85
2023-07-07T03:27:47.648Z,68.01
2023-07-07T03:30:26.874Z,64.94
2023-07-07T03:33:14.879Z,61.60
2023-07-07T03:35:45.436Z,58.43
2023-07-07T03:38:14.813Z,57.58
2023-07-07T03:40:51.019Z,55.80
2023-07-07T03:43:27.782Z,54.35
2023-07-07T03:45:55.530Z,53.60
2023-07-07T03:48:23.761Z,52.25
2023-07-07T03:51:00.960Z,51.53
2023-07-07T03:53:29.271Z,49.72
2023-07-07T03:55:56.508Z,49.00
2023-07-07T03:58:24.640Z,48.95
2023-07-07T04:00:51.509Z,52.63
2023-07-07T04:03:19.230Z,54.09
2023-07-07T04:05:47.957Z,56.44
2023-07-07T04:08:15.522Z,54.03
2023-07-07T04:10:42.382Z,49.27
2023-07-07T04:13:09.216Z,45.86
2023-07-07T04:15:36.072Z,44.25
2023-07-07T04:18:03.198Z,42.43
2023-07-07T04:20:30.144Z,41.16
2023-07-07T04:22:56.932Z,39.54
2023-07-07T04:25:23.736Z,38.34
2023-07-07T04:27:50.661Z,38.07
2023-07-07T04:30:18.693Z,35.48
2023-07-07T04:32:45.646Z,35.56
2023-07-07T04:35:12.630Z,34.72
2023-07-07T04:37:39.472Z,33.93
2023-07-07T04:40:06.901Z,35.85
2023-07-07T04:42:34.074Z,35.09
2023-07-07T04:45:00.966Z,34.81
2023-07-07T04:47:27.969Z,33.86
2023-07-07T04:49:55.373Z,35.94
2023-07-07T04:52:22.378Z,36.29
2023-07-07T04:54:50.632Z,37.59
2023-07-07T04:57:17.590Z,38.44
2023-07-07T04:59:44.768Z,37.22
2023-07-07T05:02:11.785Z,34.90
2023-07-07T05:04:39.042Z,34.50
2023-07-07T05:07:07.552Z,33.12
2023-07-07T05:09:34.673Z,35.46
2023-07-07T05:12:02.010Z,32.95
2023-07-07T05:14:29.078Z,32.05
2023-07-07T05:16:56.457Z,34.10
2023-07-07T05:19:23.522Z,31.57
2023-07-07T05:21:50.638Z,31.33
2023-07-07T05:24:17.664Z,31.78
2023-07-07T05:26:45.771Z,35.87
2023-07-07T05:29:14.242Z,34.74
2023-07-07T05:31:42.262Z,31.60
2023-07-07T05:34:09.296Z,31.31
2023-07-07T05:36:36.260Z,33.57
2023-07-07T05:39:03.241Z,30.20
2023-07-07T05:41:30.030Z,29.18
2023-07-07T05:43:57.809Z,30.70
2023-07-07T05:46:24.812Z,30.76
2023-07-07T05:48:52.572Z,28.36
2023-07-07T05:51:20.377Z,27.80
2023-07-07T05:53:48.587Z,30.25
2023-07-07T05:56:15.553Z,29.42
2023-07-07T05:58:43.760Z,29.46
2023-07-07T06:01:11.774Z,28.14
2023-07-07T06:03:40.700Z,28.56
2023-07-07T06:06:10.652Z,30.46
2023-07-07T06:08:37.695Z,29.85
2023-07-07T06:11:04.718Z,30.31
2023-07-07T06:13:32.100Z,28.58
2023-07-07T06:15:59.249Z,27.94
2023-07-07T06:18:26.445Z,27.46
2023-07-07T06:20:55.507Z,30.44
2023-07-07T06:23:22.450Z,30.54
2023-07-07T06:25:49.841Z,31.07
2023-07-07T06:28:17.573Z,31.28
2023-07-07T06:30:45.138Z,29.57
2023-07-07T06:33:12.727Z,28.91
2023-07-07T06:35:39.885Z,29.36
2023-07-07T06:38:07.589Z,27.26
2023-07-07T06:40:36.095Z,29.09
2023-07-07T06:43:03.802Z,30.02
2023-07-07T06:45:33.020Z,28.99
2023-07-07T06:48:02.335Z,29.12
2023-07-07T06:50:31.296Z,29.16
2023-07-07T06:52:59.154Z,29.57
2023-07-07T06:55:27.287Z,29.58
2023-07-07T06:57:55.480Z,27.88
2023-07-07T07:00:23.326Z,28.81
2023-07-07T07:02:51.062Z,28.27
2023-07-07T07:05:21.712Z,27.79
2023-07-07T07:07:50.139Z,26.65
2023-07-07T07:10:17.957Z,26.46
2023-07-07T07:12:45.624Z,27.49
2023-07-07T07:15:13.723Z,26.72
2023-07-07T07:17:40.892Z,28.22
2023-07-07T07:20:08.944Z,28.09
2023-07-07T07:22:36.407Z,26.58
2023-07-07T07:25:03.875Z,27.29
2023-07-07T07:27:30.955Z,28.59
2023-07-07T07:29:57.996Z,26.43
2023-07-07T07:32:25.108Z,26.23
2023-07-07T07:34:52.309Z,27.73
2023-07-07T07:37:19.243Z,26.37
2023-07-07T07:39:46.385Z,26.26
2023-07-07T07:42:13.325Z,28.04
2023-07-07T07:44:40.404Z,28.91
2023-07-07T07:47:07.731Z,28.59
2023-07-07T07:49:35.283Z,28.17
2023-07-07T07:52:02.543Z,29.03
2023-07-07T07:54:29.544Z,28.62
2023-07-07T07:56:56.625Z,29.65
2023-07-07T07:59:23.567Z,29.99
2023-07-07T08:01:50.576Z,30.21
2023-07-07T08:04:17.523Z,30.61
2023-07-07T08:06:44.600Z,31.39
2023-07-07T08:09:12.737Z,31.36
2023-07-07T08:11:43.443Z,28.80
2023-07-07T08:14:11.264Z,30.28
2023-07-07T08:16:38.244Z,30.40
2023-07-07T08:21:37.444Z,29.94
2023-07-07T08:24:05.147Z,29.78
2023-07-07T08:26:32.683Z,29.59
2023-07-07T08:29:00.509Z,30.53
2023-07-07T08:31:27.946Z,28.62
2023-07-07T08:33:59.771Z,29.20
2023-07-07T08:36:29.545Z,29.31
2023-07-07T08:39:00.890Z,32.08
2023-07-07T08:41:28.894Z,29.63
2023-07-07T08:43:56.307Z,29.42
2023-07-07T08:46:23.256Z,31.10
2023-07-07T08:48:54.336Z,30.30
2023-07-07T08:51:23.555Z,31.19
2023-07-07T08:54:00.886Z,29.66
2023-07-07T08:56:28.046Z,29.44
2023-07-07T08:59:07.688Z,29.28
2023-07-07T09:01:35.026Z,29.30
2023-07-07T09:04:20.970Z,29.41
2023-07-07T09:06:47.976Z,29.17
2023-07-07T09:09:39.749Z,28.41
2023-07-07T09:12:15.832Z,29.13
2023-07-07T09:14:43.936Z,29.01
2023-07-07T09:17:18.076Z,28.59
2023-07-07T09:19:46.719Z,27.86
2023-07-07T09:22:24.529Z,28.03
2023-07-07T09:25:00.531Z,28.97
2023-07-07T09:27:31.545Z,29.24
2023-07-07T09:30:18.982Z,29.03
2023-07-07T09:32:46.049Z,29.04
2023-07-07T09:35:14.847Z,28.89
2023-07-07T09:37:51.770Z,28.90
2023-07-07T09:40:29.926Z,28.95
2023-07-07T09:43:11.908Z,28.72
2023-07-07T09:45:51.143Z,28.78
2023-07-07T09:48:18.071Z,28.43
2023-07-07T09:50:53.414Z,28.77
2023-07-07T09:53:47.468Z,27.81
2023-07-07T09:56:25.265Z,29.31
2023-07-07T09:59:07.370Z,28.88
2023-07-07T10:01:35.684Z,28.13
2023-07-07T10:04:04.602Z,28.94
2023-07-07T10:06:36.283Z,29.62
2023-07-07T10:09:04.483Z,28.43
2023-07-07T10:12:02.379Z,28.06
2023-07-07T10:14:21.241Z,27.43
2023-07-07T10:17:11.855Z,27.72
2023-07-07T10:19:45.794Z,28.35
2023-07-07T10:22:13.674Z,28.77
2023-07-07T10:24:40.905Z,29.27
2023-07-07T10:27:12.189Z,28.78
2023-07-07T10:29:40.699Z,27.50
2023-07-07T10:32:12.635Z,27.72
2023-07-07T10:34:42.840Z,27.13
2023-07-07T10:37:20.353Z,26.37
2023-07-07T10:39:55.156Z,27.50
2023-07-07T10:42:25.261Z,28.13
2023-07-07T10:45:04.513Z,28.51
2023-07-07T10:47:38.265Z,26.84
2023-07-07T10:50:11.068Z,28.27
2023-07-07T10:55:21.133Z,26.95
2023-07-07T10:58:00.579Z,28.14
2023-07-07T11:00:31.374Z,27.41
2023-07-07T11:03:03.206Z,28.32
2023-07-07T11:06:03.521Z,26.55
2023-07-07T11:08:34.864Z,28.45
2023-07-07T11:11:05.032Z,27.23
2023-07-07T11:13:31.979Z,27.53
2023-07-07T11:16:05.553Z,27.94
2023-07-07T11:18:50.894Z,27.22
2023-07-07T11:21:19.097Z,28.28
2023-07-07T11:23:49.006Z,28.37
2023-07-07T11:26:21.971Z,28.16
2023-07-07T11:29:07.705Z,28.62
2023-07-07T11:31:34.899Z,27.44
2023-07-07T11:34:10.206Z,28.39
2023-07-07T11:36:43.403Z,27.27
2023-07-07T11:39:19.693Z,28.65
2023-07-07T11:42:12.519Z,28.45
2023-07-07T11:44:42.421Z,27.78
2023-07-07T11:47:23.038Z,28.87
2023-07-07T11:50:02.534Z,28.74
2023-07-07T11:53:08.311Z,27.90
2023-07-07T11:55:52.562Z,27.69
2023-07-07T11:58:37.919Z,27.67
2023-07-07T12:01:19.672Z,27.45
2023-07-07T12:03:58.988Z,28.98
2023-07-07T12:06:31.871Z,27.77
2023-07-07T12:09:01.918Z,28.51
2023-07-07T12:11:30.821Z,28.63
2023-07-07T12:14:01.114Z,28.56
2023-07-07T12:16:30.709Z,28.65
2023-07-07T12:19:05.234Z,29.51
2023-07-07T12:21:37.505Z,29.22
2023-07-07T12:24:18.473Z,29.04
2023-07-07T12:26:51.390Z,28.41
2023-07-07T12:29:19.501Z,28.69
2023-07-07T12:31:48.522Z,28.13
2023-07-07T12:34:38.780Z,27.48
2023-07-07T12:37:08.107Z,27.55
2023-07-07T12:39:35.767Z,28.22
2023-07-07T12:42:03.183Z,28.29
2023-07-07T12:44:30.280Z,29.39
2023-07-07T12:47:00.207Z,28.75
2023-07-07T12:49:29.832Z,28.05
2023-07-07T12:52:00.313Z,28.31
2023-07-07T12:54:31.393Z,28.21
2023-07-07T12:57:00.202Z,27.44
2023-07-07T12:59:38.052Z,28.20
2023-07-07T13:02:19.774Z,27.90
2023-07-07T13:05:00.522Z,27.38
2023-07-07T13:07:30.429Z,27.84
2023-07-07T13:09:57.721Z,26.29
2023-07-07T13:12:41.704Z,26.36
2023-07-07T13:15:13.252Z,26.53
2023-07-07T13:17:40.611Z,26.53
2023-07-07T13:20:08.363Z,26.68
2023-07-07T13:22:50.676Z,26.60
2023-07-07T13:25:38.755Z,27.14
2023-07-07T13:28:11.536Z,27.38
2023-07-07T13:30:42.832Z,26.54
2023-07-07T13:33:12.843Z,26.66
2023-07-07T13:35:41.841Z,27.21
2023-07-07T13:38:29.038Z,27.87
2023-07-07T13:40:56.713Z,27.39
2023-07-07T13:43:42.599Z,26.03
2023-07-07T13:46:18.508Z,26.67
2023-07-07T13:48:49.091Z,26.11
2023-07-07T13:51:30.041Z,27.16
2023-07-07T13:54:00.767Z,27.13
2023-07-07T13:56:28.318Z,26.63
2023-07-07T13:58:58.212Z,27.50
2023-07-07T14:01:26.960Z,27.19
2023-07-07T14:03:55.104Z,26.64
2023-07-07T14:06:22.487Z,26.77
2023-07-07T14:08:49.412Z,26.05
2023-07-07T14:11:21.102Z,26.21
2023-07-07T14:14:00.735Z,26.50
2023-07-07T14:16:27.698Z,26.24
2023-07-07T14:19:01.303Z,26.37
2023-07-07T14:21:28.837Z,26.13
2023-07-07T14:23:56.670Z,27.07
2023-07-07T14:26:24.549Z,26.77
2023-07-07T14:28:52.572Z,26.68
2023-07-07T14:31:19.672Z,27.14
2023-07-07T14:33:55.466Z,27.91
2023-07-07T14:36:32.255Z,27.34
2023-07-07T14:39:00.774Z,27.64
2023-07-07T14:41:29.464Z,27.01
2023-07-07T14:43:56.569Z,27.33
2023-07-07T14:46:26.223Z,27.54
2023-07-07T14:48:57.446Z,27.94
2023-07-07T14:51:34.737Z,27.09
2023-07-07T14:54:03.333Z,26.40
2023-07-07T14:56:32.703Z,26.70
2023-07-07T14:59:01.847Z,26.56
2023-07-07T15:01:30.376Z,27.07
2023-07-07T15:04:01.201Z,28.19
2023-07-07T15:06:30.580Z,27.62
2023-07-07T15:08:57.836Z,26.79
2023-07-07T15:11:27.383Z,27.95
2023-07-07T15:13:55.110Z,27.75
2023-07-07T15:16:26.867Z,27.82
2023-07-07T15:18:53.957Z,27.64
2023-07-07T15:21:25.184Z,27.34
2023-07-07T15:23:52.475Z,27.58
2023-07-07T15:26:38.634Z,28.00
2023-07-07T15:29:13.924Z,28.56
2023-07-07T15:31:41.176Z,28.60
2023-07-07T15:34:09.059Z,27.83
2023-07-07T15:36:36.054Z,28.77
2023-07-07T15:39:02.994Z,27.40
2023-07-07T15:41:31.942Z,27.53
2023-07-07T15:44:02.857Z,28.54
2023-07-07T15:46:46.927Z,27.68
2023-07-07T15:49:17.290Z,28.75
2023-07-07T15:51:45.291Z,29.67
2023-07-07T15:54:12.315Z,28.94
2023-07-07T15:56:43.579Z,29.65
2023-07-07T15:59:15.937Z,28.91
2023-07-07T16:01:42.909Z,29.03
2023-07-07T16:04:10.092Z,28.93
2023-07-07T16:06:37.489Z,29.82
2023-07-07T16:09:04.418Z,28.95
2023-07-07T16:11:31.815Z,29.26
2023-07-07T16:13:59.352Z,29.70
2023-07-07T16:16:28.201Z,30.44
2023-07-07T16:18:55.475Z,29.88
2023-07-07T16:21:26.277Z,29.54
2023-07-07T16:23:54.084Z,29.20
2023-07-07T16:26:28.671Z,29.57
2023-07-07T16:28:56.556Z,30.04
2023-07-07T16:31:24.313Z,30.63
2023-07-07T16:33:51.356Z,30.91
2023-07-07T16:36:20.310Z,29.96
2023-07-07T16:38:48.622Z,31.09
2023-07-07T16:41:16.818Z,29.66
2023-07-07T16:43:44.011Z,30.06
2023-07-07T16:46:15.269Z,30.49
2023-07-07T16:48:47.892Z,30.98
2023-07-07T16:51:16.914Z,30.55
2023-07-07T16:53:44.192Z,31.02
2023-07-07T16:56:25.094Z,30.87
2023-07-07T16:58:52.128Z,30.93
2023-07-07T17:01:19.581Z,30.43
2023-07-07T17:03:47.437Z,30.83
2023-07-07T17:06:22.872Z,30.65
2023-07-07T17:08:53.802Z,30.67
2023-07-07T17:11:20.871Z,30.65
2023-07-07T17:13:48.017Z,31.31
2023-07-07T17:16:31.719Z,31.85
2023-07-07T17:18:59.737Z,32.34
2023-07-07T17:21:27.986Z,31.99
2023-07-07T17:23:54.815Z,31.60
2023-07-07T17:26:26.819Z,32.53
2023-07-07T17:28:54.443Z,32.34
2023-07-07T17:31:24.999Z,31.78
2023-07-07T17:33:56.345Z,32.34
2023-07-07T17:36:24.897Z,32.87
2023-07-07T17:38:53.068Z,33.06
2023-07-07T17:41:21.265Z,32.84
2023-07-07T17:43:48.241Z,33.46
2023-07-07T17:46:24.385Z,33.33
2023-07-07T17:48:53.293Z,33.55
2023-07-07T17:51:20.226Z,33.27
2023-07-07T17:53:47.864Z,33.71
2023-07-07T17:56:18.882Z,34.06
2023-07-07T17:58:46.047Z,34.06
2023-07-07T18:01:13.312Z,34.13
2023-07-07T18:03:40.670Z,34.37
2023-07-07T18:06:15.411Z,34.30
2023-07-07T18:08:43.730Z,34.50
2023-07-07T18:11:13.669Z,34.53
2023-07-07T18:13:40.744Z,34.67
2023-07-07T18:16:16.064Z,35.06
2023-07-07T18:19:00.251Z,35.27
2023-07-07T18:21:53.929Z,35.48
2023-07-07T18:24:18.146Z,36.06
2023-07-07T18:26:45.079Z,36.14
2023-07-07T18:29:14.125Z,36.30
2023-07-07T18:31:42.369Z,37.09
2023-07-07T18:34:12.364Z,37.27
2023-07-07T18:39:22.798Z,37.29
2023-07-07T18:41:49.755Z,40.65
2023-07-07T18:44:16.851Z,41.56
2023-07-07T18:46:46.395Z,42.83
2023-07-07T18:49:14.082Z,42.86
2023-07-07T18:51:43.634Z,42.28
2023-07-07T18:54:10.896Z,43.81
2023-07-07T18:56:38.453Z,44.04
2023-07-07T18:59:12.556Z,45.70
2023-07-07T19:01:40.686Z,46.21
2023-07-07T19:04:08.284Z,45.65
2023-07-07T19:06:38.185Z,46.23
2023-07-07T19:09:14.364Z,47.00
2023-07-07T19:11:41.582Z,47.82
2023-07-07T19:14:08.726Z,47.81
2023-07-07T19:16:35.831Z,47.03
2023-07-07T19:19:02.807Z,46.51
2023-07-07T19:21:33.575Z,47.70
2023-07-07T19:24:01.083Z,48.52
2023-07-07T19:26:33.962Z,48.88
2023-07-07T19:29:02.721Z,49.24
2023-07-07T19:31:30.527Z,49.66
2023-07-07T19:33:57.472Z,49.80
2023-07-07T19:36:27.688Z,49.66
2023-07-07T19:38:58.329Z,49.15
2023-07-07T19:41:27.111Z,48.72
2023-07-07T19:43:54.493Z,48.66
2023-07-07T19:46:24.948Z,49.54
2023-07-07T19:48:52.418Z,49.75
2023-07-07T19:51:21.652Z,50.36
2023-07-07T19:53:49.267Z,51.31
2023-07-07T19:56:16.665Z,52.35
2023-07-07T19:58:44.578Z,53.63
2023-07-07T20:01:12.731Z,54.34
2023-07-07T20:03:41.096Z,55.40
2023-07-07T20:06:15.309Z,56.03
2023-07-07T20:08:42.278Z,56.59
2023-07-07T20:11:29.213Z,56.88
2023-07-07T20:13:56.829Z,56.67
2023-07-07T20:16:27.096Z,56.93
2023-07-07T20:18:55.827Z,57.06
2023-07-07T20:21:23.393Z,57.14
2023-07-07T20:23:52.825Z,57.38
2023-07-07T20:26:22.318Z,57.22
2023-07-07T20:28:51.257Z,57.14
2023-07-07T20:31:19.366Z,57.59
2023-07-07T20:33:46.828Z,57.62
2023-07-07T20:36:14.826Z,57.69
2023-07-07T20:38:42.255Z,58.25
2023-07-07T20:41:12.735Z,59.02
2023-07-07T20:43:39.904Z,59.47
2023-07-07T20:46:27.827Z,59.57
2023-07-07T20:48:55.102Z,59.08
2023-07-07T20:51:26.391Z,58.67
2023-07-07T20:53:53.781Z,59.13
2023-07-07T20:56:23.538Z,59.70
2023-07-07T20:58:51.086Z,60.07
2023-07-07T21:01:18.130Z,60.28
2023-07-07T21:03:47.052Z,61.70
2023-07-07T21:06:16.048Z,62.85
2023-07-07T21:08:43.190Z,63.12
2023-07-07T21:11:11.387Z,63.06
2023-07-07T21:13:38.314Z,63.19
2023-07-07T21:16:11.441Z,63.56
2023-07-07T21:18:38.804Z,64.25
2023-07-07T21:21:09.744Z,64.23
2023-07-07T21:23:36.908Z,64.99
2023-07-07T21:26:16.428Z,67.03
2023-07-07T21:28:43.548Z,68.50
2023-07-07T21:31:17.979Z,68.33
2023-07-07T21:33:45.634Z,68.02
2023-07-07T21:36:21.924Z,68.49
2023-07-07T21:38:48.875Z,69.59
2023-07-07T21:41:16.094Z,70.01
2023-07-07T21:43:43.147Z,70.04
2023-07-07T21:46:15.271Z,70.49
2023-07-07T21:48:42.320Z,71.18
2023-07-07T21:51:11.240Z,71.51
2023-07-07T21:53:38.245Z,71.96
2023-07-07T21:56:10.725Z,72.26
2023-07-07T21:58:37.641Z,73.05
2023-07-07T22:01:09.444Z,72.39
2023-07-07T22:03:36.440Z,72.69
2023-07-07T22:06:09.448Z,73.44
2023-07-07T22:08:36.501Z,72.01
2023-07-07T22:11:03.490Z,72.10
2023-07-07T22:13:30.563Z,73.97
2023-07-07T22:15:57.589Z,74.41
2023-07-07T22:18:25.611Z,74.13
2023-07-07T22:20:56.872Z,74.10
2023-07-07T22:23:24.340Z,73.65
2023-07-07T22:25:52.040Z,73.79
2023-07-07T22:28:20.928Z,73.57
2023-07-07T22:30:49.994Z,73.62
2023-07-07T22:33:17.157Z,73.59
2023-07-07T22:35:44.174Z,73.86
2023-07-07T22:38:21.941Z,73.24
2023-07-07T22:40:49.956Z,71.46
2023-07-07T22:43:17.308Z,70.68
2023-07-07T22:45:44.552Z,70.50
2023-07-07T22:48:15.703Z,70.65
2023-07-07T22:50:43.531Z,70.69
2023-07-07T22:53:13.479Z,71.00
2023-07-07T22:55:41.569Z,71.11
2023-07-07T22:58:16.439Z,71.03
2023-07-07T23:00:43.635Z,70.96
2023-07-07T23:03:11.744Z,70.99
2023-07-07T23:05:40.243Z,73.14
2023-07-07T23:08:16.306Z,73.78
2023-07-07T23:10:43.262Z,73.88
2023-07-07T23:13:09.984Z,74.07
2023-07-07T23:15:36.895Z,74.71
2023-07-07T23:18:04.128Z,74.83
2023-07-07T23:20:31.195Z,74.47
2023-07-07T23:22:58.755Z,74.55
2023-07-07T23:25:26.565Z,76.94
2023-07-07T23:27:55.246Z,76.86
2023-07-07T23:30:38.887Z,76.53
2023-07-07T23:33:13.573Z,76.33
2023-07-07T23:35:43.691Z,75.38
2023-07-07T23:38:14.578Z,75.07
2023-07-07T23:40:41.543Z,74.60
2023-07-07T23:43:09.474Z,74.32
2023-07-07T23:45:37.147Z,74.86
2023-07-07T23:48:10.413Z,74.42
2023-07-07T23:50:46.845Z,73.32
2023-07-07T23:53:13.913Z,72.68
2023-07-07T23:55:40.649Z,71.60
2023-07-07T23:58:11.881Z,71.63
